createdAt,value
2017-12-23T00:00:25.889Z,56.63
2017-12-23T00:00:57.534Z,56.61
2017-12-23T00:01:29.173Z,56.63
2017-12-23T00:02:00.815Z,56.62
2017-12-23T00:02:32.457Z,56.54
2017-12-23T00:03:04.096Z,56.63
2017-12-23T00:03:35.762Z,56.53
2017-12-23T00:04:07.386Z,56.60
2017-12-23T00:04:39.030Z,56.70
2017-12-23T00:05:10.671Z,56.68
2017-12-23T00:05:42.309Z,56.83
2017-12-23T00:06:13.948Z,56.82
2017-12-23T00:06:45.592Z,56.73
2017-12-23T00:07:17.232Z,56.52
2017-12-23T00:07:48.877Z,56.52
2017-12-23T00:08:20.539Z,56.65
2017-12-23T00:08:52.166Z,56.54
2017-12-23T00:09:23.835Z,56.49
2017-12-23T00:09:55.459Z,56.54
2017-12-23T00:10:27.393Z,56.60
2017-12-23T00:10:59.034Z,56.41
2017-12-23T00:11:30.676Z,56.54
2017-12-23T00:12:02.318Z,56.42
2017-12-23T00:12:33.961Z,56.46
2017-12-23T00:13:05.599Z,56.39
2017-12-23T00:13:37.278Z,56.31
2017-12-23T00:14:08.902Z,56.34
2017-12-23T00:14:40.534Z,56.38
2017-12-23T00:15:12.397Z,56.20
2017-12-23T00:15:44.023Z,56.29
2017-12-23T00:16:15.761Z,56.27
2017-12-23T00:16:47.375Z,56.26
2017-12-23T00:17:19.022Z,56.25
2017-12-23T00:17:50.662Z,56.13
2017-12-23T00:18:22.302Z,56.20
2017-12-23T00:18:53.974Z,56.08
2017-12-23T00:19:25.603Z,56.16
2017-12-23T00:19:57.282Z,56.14
2017-12-23T00:20:28.913Z,56.25
2017-12-23T00:21:00.539Z,56.32
2017-12-23T00:21:32.161Z,56.45
2017-12-23T00:22:03.803Z,56.33
2017-12-23T00:22:35.441Z,56.53
2017-12-23T00:23:07.083Z,56.54
2017-12-23T00:23:38.726Z,56.50
2017-12-23T00:24:10.368Z,56.54
2017-12-23T00:24:42.013Z,56.60
2017-12-23T00:25:13.682Z,56.50
2017-12-23T00:25:45.310Z,56.43
2017-12-23T00:26:16.986Z,56.58
2017-12-23T00:26:48.610Z,56.63
2017-12-23T00:27:20.237Z,56.72
2017-12-23T00:27:51.870Z,56.84
2017-12-23T00:28:23.689Z,56.83
2017-12-23T00:28:55.318Z,56.97
2017-12-23T00:29:26.946Z,56.78
2017-12-23T00:29:58.573Z,56.87
2017-12-23T00:30:30.193Z,57.04
2017-12-23T00:31:01.822Z,57.20
2017-12-23T00:31:33.501Z,57.01
2017-12-23T00:32:05.723Z,57.25
2017-12-23T00:32:37.553Z,57.19
2017-12-23T00:33:09.205Z,57.31
2017-12-23T00:33:40.848Z,57.43
2017-12-23T00:34:12.489Z,57.56
2017-12-23T00:34:44.132Z,57.65
2017-12-23T00:35:15.774Z,57.65
2017-12-23T00:35:47.468Z,57.77
2017-12-23T00:36:19.122Z,57.80
2017-12-23T00:36:51.010Z,57.83
2017-12-23T00:37:22.647Z,58.15
2017-12-23T00:37:54.292Z,57.92
2017-12-23T00:38:25.935Z,57.99
2017-12-23T00:38:57.579Z,57.99
2017-12-23T00:39:29.219Z,57.99
2017-12-23T00:40:00.887Z,58.21
2017-12-23T00:40:32.514Z,58.01
2017-12-23T00:41:04.150Z,58.33
2017-12-23T00:41:35.787Z,58.31
2017-12-23T00:42:07.474Z,58.49
2017-12-23T00:42:39.102Z,58.46
2017-12-23T00:43:10.731Z,58.54
2017-12-23T00:43:42.361Z,58.48
2017-12-23T00:44:13.997Z,58.68
2017-12-23T00:44:45.640Z,58.75
2017-12-23T00:45:17.338Z,58.67
2017-12-23T00:45:48.966Z,58.71
2017-12-23T00:46:20.590Z,58.89
2017-12-23T00:46:52.214Z,59.11
2017-12-23T00:47:23.882Z,59.02
2017-12-23T00:47:55.506Z,59.06
2017-12-23T00:48:27.375Z,59.06
2017-12-23T00:48:59.002Z,59.24
2017-12-23T00:49:30.629Z,59.15
2017-12-23T00:50:02.377Z,59.03
2017-12-23T00:50:34.319Z,59.32
2017-12-23T00:51:05.962Z,59.23
2017-12-23T00:51:37.637Z,59.48
2017-12-23T00:52:09.262Z,59.43
2017-12-23T00:52:40.894Z,59.27
2017-12-23T00:53:12.529Z,59.43
2017-12-23T00:53:44.171Z,59.66
2017-12-23T00:54:15.813Z,59.60
2017-12-23T00:54:47.456Z,59.55
2017-12-23T00:55:19.099Z,59.93
2017-12-23T00:55:50.740Z,59.87
2017-12-23T00:56:22.383Z,60.16
2017-12-23T00:56:54.058Z,59.68
2017-12-23T00:57:25.678Z,60.12
2017-12-23T00:57:57.309Z,59.89
2017-12-23T00:58:28.952Z,60.02
2017-12-23T00:59:00.590Z,59.83
2017-12-23T00:59:32.270Z,60.00
2017-12-23T01:00:03.889Z,60.35
2017-12-23T01:00:35.519Z,60.30
2017-12-23T01:01:07.178Z,60.66
2017-12-23T01:01:38.983Z,60.25
2017-12-23T01:02:10.606Z,60.76
2017-12-23T01:02:42.234Z,60.90
2017-12-23T01:03:13.857Z,60.67
2017-12-23T01:03:45.479Z,60.62
2017-12-23T01:04:17.322Z,60.62
2017-12-23T01:04:48.964Z,61.03
2017-12-23T01:05:20.604Z,60.44
2017-12-23T01:05:52.248Z,60.63
2017-12-23T01:06:23.891Z,60.71
2017-12-23T01:06:55.532Z,60.64
2017-12-23T01:07:27.175Z,60.59
2017-12-23T01:07:58.815Z,60.77
2017-12-23T01:08:30.767Z,61.04
2017-12-23T01:09:02.407Z,60.73
2017-12-23T01:09:34.082Z,60.75
2017-12-23T01:10:05.710Z,60.81
2017-12-23T01:10:37.338Z,60.93
2017-12-23T01:11:08.978Z,60.77
2017-12-23T01:11:40.618Z,61.11
2017-12-23T01:12:12.261Z,61.21
2017-12-23T01:12:43.902Z,61.03
2017-12-23T01:13:15.542Z,61.18
2017-12-23T01:13:47.188Z,61.03
2017-12-23T01:14:18.829Z,60.96
2017-12-23T01:14:50.472Z,60.77
2017-12-23T01:15:22.114Z,60.87
2017-12-23T01:15:53.786Z,61.20
2017-12-23T01:16:25.410Z,60.78
2017-12-23T01:16:57.269Z,60.78
2017-12-23T01:17:28.898Z,61.00
2017-12-23T01:18:00.566Z,60.67
2017-12-23T01:18:32.190Z,60.71
2017-12-23T01:19:03.818Z,60.51
2017-12-23T01:19:35.558Z,60.75
2017-12-23T01:20:07.199Z,61.12
2017-12-23T01:20:38.842Z,61.19
2017-12-23T01:21:10.484Z,61.17
2017-12-23T01:21:42.164Z,61.00
2017-12-23T01:22:13.786Z,61.04
2017-12-23T01:22:45.656Z,60.96
2017-12-23T01:23:17.282Z,60.79
2017-12-23T01:23:48.906Z,60.97
2017-12-23T01:24:20.645Z,60.69
2017-12-23T01:24:52.287Z,60.79
2017-12-23T01:25:23.928Z,60.85
2017-12-23T01:25:55.570Z,60.77
2017-12-23T01:26:27.213Z,60.64
2017-12-23T01:26:58.854Z,60.71
2017-12-23T01:27:30.498Z,60.61
2017-12-23T01:28:02.140Z,60.60
2017-12-23T01:28:33.767Z,60.63
2017-12-23T01:29:05.423Z,60.57
2017-12-23T01:29:37.065Z,60.50
2017-12-23T01:30:08.708Z,60.49
2017-12-23T01:30:40.349Z,60.42
2017-12-23T01:31:11.991Z,60.43
2017-12-23T01:31:43.621Z,60.35
2017-12-23T01:32:15.297Z,60.26
2017-12-23T01:32:47.155Z,60.18
2017-12-23T01:33:18.782Z,60.22
2017-12-23T01:33:50.414Z,60.14
2017-12-23T01:34:22.151Z,60.01
2017-12-23T01:34:53.793Z,60.09
2017-12-23T01:35:25.438Z,60.11
2017-12-23T01:35:57.075Z,59.96
2017-12-23T01:36:28.719Z,59.76
2017-12-23T01:37:00.669Z,59.95
2017-12-23T01:37:32.346Z,59.85
2017-12-23T01:38:03.974Z,59.79
2017-12-23T01:38:35.602Z,59.74
2017-12-23T01:39:07.364Z,59.68
2017-12-23T01:39:38.990Z,59.50
2017-12-23T01:40:10.829Z,59.62
2017-12-23T01:40:42.472Z,59.45
2017-12-23T01:41:14.114Z,59.44
2017-12-23T01:41:45.755Z,59.35
2017-12-23T01:42:17.397Z,59.33
2017-12-23T01:42:49.074Z,59.33
2017-12-23T01:43:20.717Z,59.37
2017-12-23T01:43:52.339Z,59.20
2017-12-23T01:44:24.272Z,59.23
2017-12-23T01:44:55.912Z,59.18
2017-12-23T01:45:27.557Z,59.26
2017-12-23T01:45:59.199Z,59.13
2017-12-23T01:46:30.839Z,59.13
2017-12-23T01:47:02.497Z,59.10
2017-12-23T01:47:34.367Z,59.14
2017-12-23T01:48:06.035Z,59.10
2017-12-23T01:48:37.662Z,59.02
2017-12-23T01:49:09.284Z,59.01
2017-12-23T01:49:40.906Z,58.95
2017-12-23T01:50:12.570Z,58.98
2017-12-23T01:50:44.190Z,58.88
2017-12-23T01:51:16.833Z,59.00
2017-12-23T01:51:48.490Z,59.04
2017-12-23T01:52:20.132Z,58.97
2017-12-23T01:52:51.771Z,58.91
2017-12-23T01:53:23.415Z,59.06
2017-12-23T01:53:55.082Z,58.99
2017-12-23T01:54:26.709Z,58.96
2017-12-23T01:54:58.649Z,58.88
2017-12-23T01:55:30.599Z,59.05
2017-12-23T01:56:02.240Z,59.05
2017-12-23T01:56:33.880Z,58.86
2017-12-23T01:57:05.530Z,58.94
2017-12-23T01:57:37.167Z,58.93
2017-12-23T01:58:08.809Z,58.93
2017-12-23T01:58:40.486Z,58.95
2017-12-23T01:59:12.114Z,59.02
2017-12-23T01:59:43.742Z,58.96
2017-12-23T02:00:15.377Z,59.01
2017-12-23T02:00:47.015Z,59.02
2017-12-23T02:01:18.658Z,58.93
2017-12-23T02:01:50.304Z,59.09
2017-12-23T02:02:21.945Z,59.14
2017-12-23T02:02:53.586Z,59.05
2017-12-23T02:03:25.249Z,59.13
2017-12-23T02:03:57.177Z,59.14
2017-12-23T02:04:28.816Z,59.18
2017-12-23T02:05:00.462Z,59.29
2017-12-23T02:05:32.103Z,59.16
2017-12-23T02:06:03.745Z,59.16
2017-12-23T02:06:35.387Z,59.27
2017-12-23T02:07:07.029Z,59.11
2017-12-23T02:07:38.700Z,59.12
2017-12-23T02:08:10.326Z,59.17
2017-12-23T02:08:41.946Z,59.03
2017-12-23T02:09:13.597Z,59.08
2017-12-23T02:09:45.239Z,59.01
2017-12-23T02:10:16.880Z,59.20
2017-12-23T02:10:48.553Z,59.13
2017-12-23T02:11:20.173Z,59.09
2017-12-23T02:11:51.926Z,59.08
2017-12-23T02:12:23.756Z,59.16
2017-12-23T02:12:55.426Z,59.17
2017-12-23T02:13:27.050Z,59.16
2017-12-23T02:13:58.683Z,59.25
2017-12-23T02:14:30.321Z,59.39
2017-12-23T02:15:01.964Z,59.40
2017-12-23T02:15:33.608Z,59.27
2017-12-23T02:16:05.249Z,59.44
2017-12-23T02:16:36.927Z,59.35
2017-12-23T02:17:08.550Z,59.25
2017-12-23T02:17:40.284Z,59.29
2017-12-23T02:18:12.126Z,59.27
2017-12-23T02:18:43.955Z,59.27
2017-12-23T02:19:15.716Z,59.41
2017-12-23T02:19:47.358Z,59.35
2017-12-23T02:20:19.002Z,59.40
2017-12-23T02:20:50.641Z,59.29
2017-12-23T02:21:22.283Z,59.26
2017-12-23T02:21:53.945Z,59.11
2017-12-23T02:22:25.586Z,59.29
2017-12-23T02:22:57.214Z,59.27
2017-12-23T02:23:28.851Z,59.35
2017-12-23T02:24:00.493Z,59.36
2017-12-23T02:24:32.136Z,59.34
2017-12-23T02:25:03.777Z,59.24
2017-12-23T02:25:35.421Z,59.42
2017-12-23T02:26:07.086Z,59.14
2017-12-23T02:26:38.742Z,59.34
2017-12-23T02:27:10.362Z,59.63
2017-12-23T02:27:42.229Z,59.44
2017-12-23T02:28:13.860Z,59.76
2017-12-23T02:28:45.486Z,59.54
2017-12-23T02:29:17.220Z,59.65
2017-12-23T02:29:48.858Z,59.69
2017-12-23T02:30:20.508Z,59.58
2017-12-23T02:30:52.179Z,59.60
2017-12-23T02:31:23.847Z,59.86
2017-12-23T02:31:55.479Z,59.69
2017-12-23T02:32:27.109Z,59.59
2017-12-23T02:32:58.734Z,59.69
2017-12-23T02:33:30.362Z,59.80
2017-12-23T02:34:02.040Z,59.83
2017-12-23T02:34:33.666Z,59.72
2017-12-23T02:35:05.294Z,59.84
2017-12-23T02:35:36.921Z,59.81
2017-12-23T02:36:08.563Z,59.88
2017-12-23T02:36:40.207Z,59.82
2017-12-23T02:37:11.849Z,59.71
2017-12-23T02:37:43.490Z,59.79
2017-12-23T02:38:15.110Z,59.85
2017-12-23T02:38:46.776Z,59.85
2017-12-23T02:39:18.458Z,59.79
2017-12-23T02:39:50.083Z,59.91
2017-12-23T02:40:21.706Z,59.77
2017-12-23T02:40:53.341Z,59.75
2017-12-23T02:41:24.984Z,59.81
2017-12-23T02:41:56.625Z,59.83
2017-12-23T02:42:28.265Z,59.70
2017-12-23T02:42:59.910Z,59.79
2017-12-23T02:43:31.553Z,59.79
2017-12-23T02:44:03.193Z,60.00
2017-12-23T02:44:34.854Z,60.01
2017-12-23T02:45:06.486Z,60.03
2017-12-23T02:45:38.353Z,59.85
2017-12-23T02:46:09.974Z,59.83
2017-12-23T02:46:41.711Z,59.83
2017-12-23T02:47:13.353Z,59.89
2017-12-23T02:47:44.993Z,59.88
2017-12-23T02:48:16.634Z,59.86
2017-12-23T02:48:48.278Z,59.91
2017-12-23T02:49:19.920Z,60.12
2017-12-23T02:49:51.563Z,59.96
2017-12-23T02:50:23.204Z,59.99
2017-12-23T02:50:54.844Z,60.28
2017-12-23T02:51:26.488Z,60.13
2017-12-23T02:51:58.114Z,60.20
2017-12-23T02:52:29.772Z,60.21
2017-12-23T02:53:01.414Z,60.22
2017-12-23T02:53:33.079Z,60.30
2017-12-23T02:54:04.702Z,60.23
2017-12-23T02:54:36.340Z,60.41
2017-12-23T02:55:07.983Z,60.32
2017-12-23T02:55:39.624Z,60.31
2017-12-23T02:56:11.297Z,60.26
2017-12-23T02:56:42.923Z,60.51
2017-12-23T02:57:14.554Z,60.53
2017-12-23T02:57:46.189Z,60.53
2017-12-23T02:58:17.833Z,60.62
2017-12-23T02:58:49.474Z,60.64
2017-12-23T02:59:21.117Z,60.81
2017-12-23T02:59:52.760Z,60.95
2017-12-23T03:00:24.425Z,60.85
2017-12-23T03:00:56.058Z,60.82
2017-12-23T03:01:27.993Z,60.76
2017-12-23T03:01:59.662Z,60.90
2017-12-23T03:02:31.290Z,60.87
2017-12-23T03:03:03.153Z,60.80
2017-12-23T03:03:34.783Z,61.02
2017-12-23T03:04:06.414Z,61.37
2017-12-23T03:04:38.151Z,61.34
2017-12-23T03:05:09.791Z,61.32
2017-12-23T03:05:41.435Z,61.42
2017-12-23T03:06:13.077Z,61.70
2017-12-23T03:06:44.706Z,61.60
2017-12-23T03:07:16.378Z,61.44
2017-12-23T03:07:48.240Z,61.48
2017-12-23T03:08:19.870Z,61.75
2017-12-23T03:08:51.594Z,61.41
2017-12-23T03:09:23.235Z,61.55
2017-12-23T03:09:54.874Z,61.46
2017-12-23T03:10:26.520Z,61.71
2017-12-23T03:10:58.161Z,61.66
2017-12-23T03:11:29.809Z,61.63
2017-12-23T03:12:01.445Z,61.77
2017-12-23T03:12:33.130Z,61.45
2017-12-23T03:13:04.754Z,61.36
2017-12-23T03:13:36.378Z,61.38
2017-12-23T03:14:08.013Z,61.70
2017-12-23T03:14:39.653Z,61.53
2017-12-23T03:15:11.296Z,61.56
2017-12-23T03:15:42.935Z,61.53
2017-12-23T03:16:14.580Z,61.28
2017-12-23T03:16:46.218Z,60.99
2017-12-23T03:17:17.863Z,61.15
2017-12-23T03:17:49.504Z,60.88
2017-12-23T03:18:21.146Z,60.75
2017-12-23T03:18:52.766Z,60.54
2017-12-23T03:19:24.430Z,60.54
2017-12-23T03:19:56.070Z,60.65
2017-12-23T03:20:27.713Z,60.51
2017-12-23T03:20:59.355Z,60.36
2017-12-23T03:21:30.997Z,60.26
2017-12-23T03:22:02.644Z,60.21
2017-12-23T03:22:34.280Z,60.27
2017-12-23T03:23:05.980Z,60.40
2017-12-23T03:23:37.605Z,60.28
2017-12-23T03:24:09.225Z,60.15
2017-12-23T03:24:40.854Z,60.23
2017-12-23T03:25:12.491Z,60.13
2017-12-23T03:25:44.136Z,60.12
2017-12-23T03:26:15.774Z,60.03
2017-12-23T03:26:47.416Z,60.02
2017-12-23T03:27:19.057Z,59.97
2017-12-23T03:27:50.699Z,60.00
2017-12-23T03:28:22.340Z,59.92
2017-12-23T03:28:53.983Z,59.90
2017-12-23T03:29:25.624Z,59.86
2017-12-23T03:29:57.269Z,59.67
2017-12-23T03:30:28.908Z,59.74
2017-12-23T03:31:00.550Z,59.82
2017-12-23T03:31:32.192Z,59.75
2017-12-23T03:32:03.834Z,59.79
2017-12-23T03:32:35.482Z,59.78
2017-12-23T03:33:07.431Z,59.85
2017-12-23T03:33:39.260Z,59.73
2017-12-23T03:34:11.016Z,59.61
2017-12-23T03:34:42.657Z,59.62
2017-12-23T03:35:14.299Z,59.64
2017-12-23T03:35:45.941Z,59.74
2017-12-23T03:36:17.580Z,59.67
2017-12-23T03:36:49.224Z,59.59
2017-12-23T03:37:20.867Z,59.78
2017-12-23T03:37:52.508Z,59.82
2017-12-23T03:38:24.186Z,59.80
2017-12-23T03:38:55.806Z,60.00
2017-12-23T03:39:27.439Z,60.06
2017-12-23T03:39:59.076Z,60.08
2017-12-23T03:40:30.719Z,60.19
2017-12-23T03:41:02.358Z,60.25
2017-12-23T03:41:34.001Z,60.28
2017-12-23T03:42:05.643Z,60.34
2017-12-23T03:42:37.286Z,60.37
2017-12-23T03:43:08.927Z,60.37
2017-12-23T03:43:40.590Z,60.52
2017-12-23T03:44:12.455Z,60.46
2017-12-23T03:44:44.086Z,60.39
2017-12-23T03:45:15.710Z,60.53
2017-12-23T03:45:47.444Z,60.54
2017-12-23T03:46:19.086Z,60.35
2017-12-23T03:46:50.758Z,60.48
2017-12-23T03:47:22.382Z,60.46
2017-12-23T03:47:54.243Z,60.54
2017-12-23T03:48:25.866Z,60.42
2017-12-23T03:48:57.602Z,60.46
2017-12-23T03:49:29.243Z,60.51
2017-12-23T03:50:00.884Z,60.49
2017-12-23T03:50:32.528Z,60.59
2017-12-23T03:51:04.173Z,60.50
2017-12-23T03:51:35.810Z,60.59
2017-12-23T03:52:07.458Z,60.52
2017-12-23T03:52:39.139Z,60.34
2017-12-23T03:53:10.766Z,60.46
2017-12-23T03:53:42.389Z,60.47
2017-12-23T03:54:14.018Z,60.47
2017-12-23T03:54:45.658Z,60.37
2017-12-23T03:55:17.302Z,60.35
2017-12-23T03:55:48.966Z,60.46
2017-12-23T03:56:20.594Z,60.49
2017-12-23T03:56:52.227Z,60.37
2017-12-23T03:57:23.869Z,60.37
2017-12-23T03:57:55.511Z,60.53
2017-12-23T03:58:27.174Z,60.50
2017-12-23T03:58:58.802Z,60.40
2017-12-23T03:59:30.436Z,60.58
2017-12-23T04:00:02.103Z,60.53
2017-12-23T04:00:33.731Z,60.51
2017-12-23T04:01:05.366Z,60.43
2017-12-23T04:01:37.002Z,60.54
2017-12-23T04:02:08.645Z,60.55
2017-12-23T04:02:40.286Z,60.50
2017-12-23T04:03:11.926Z,60.36
2017-12-23T04:03:43.568Z,60.51
2017-12-23T04:04:15.213Z,60.44
2017-12-23T04:04:46.855Z,60.36
2017-12-23T04:05:18.531Z,60.50
2017-12-23T04:05:50.155Z,60.35
2017-12-23T04:06:21.786Z,60.46
2017-12-23T04:06:53.421Z,60.46
2017-12-23T04:07:25.091Z,60.34
2017-12-23T04:07:56.718Z,60.42
2017-12-23T04:08:28.347Z,60.56
2017-12-23T04:08:59.988Z,60.56
2017-12-23T04:09:31.630Z,60.46
2017-12-23T04:10:03.297Z,60.55
2017-12-23T04:10:34.923Z,60.51
2017-12-23T04:11:06.556Z,60.67
2017-12-23T04:11:38.197Z,60.65
2017-12-23T04:12:09.839Z,60.61
2017-12-23T04:12:41.502Z,60.65
2017-12-23T04:13:13.130Z,60.65
2017-12-23T04:13:44.765Z,60.84
2017-12-23T04:14:16.407Z,60.80
2017-12-23T04:14:48.075Z,60.85
2017-12-23T04:15:19.703Z,61.01
2017-12-23T04:15:51.607Z,60.81
2017-12-23T04:16:23.588Z,60.84
2017-12-23T04:16:55.230Z,60.70
2017-12-23T04:17:26.869Z,60.82
2017-12-23T04:17:58.514Z,60.86
2017-12-23T04:18:30.153Z,60.79
2017-12-23T04:19:01.797Z,61.01
2017-12-23T04:19:33.439Z,60.85
2017-12-23T04:20:05.078Z,60.86
2017-12-23T04:20:36.758Z,60.87
2017-12-23T04:21:08.386Z,60.98
2017-12-23T04:21:40.017Z,60.81
2017-12-23T04:22:11.884Z,60.63
2017-12-23T04:22:43.510Z,60.73
2017-12-23T04:23:15.238Z,60.69
2017-12-23T04:23:46.880Z,60.70
2017-12-23T04:24:18.522Z,60.75
2017-12-23T04:24:50.163Z,60.73
2017-12-23T04:25:21.805Z,60.88
2017-12-23T04:25:53.469Z,60.85
2017-12-23T04:26:25.094Z,60.58
2017-12-23T04:26:56.731Z,60.82
2017-12-23T04:27:28.372Z,60.74
2017-12-23T04:28:00.014Z,60.71
2017-12-23T04:28:31.656Z,60.70
2017-12-23T04:29:04.221Z,60.77
2017-12-23T04:29:35.861Z,60.72
2017-12-23T04:30:07.509Z,60.78
2017-12-23T04:30:39.178Z,60.68
2017-12-23T04:31:10.810Z,60.66
2017-12-23T04:31:42.442Z,60.73
2017-12-23T04:32:14.303Z,60.77
2017-12-23T04:32:45.927Z,60.66
2017-12-23T04:33:17.598Z,60.63
2017-12-23T04:33:49.226Z,60.55
2017-12-23T04:34:20.850Z,60.51
2017-12-23T04:34:52.586Z,60.49
2017-12-23T04:35:24.535Z,60.45
2017-12-23T04:35:56.176Z,60.43
2017-12-23T04:36:27.817Z,60.31
2017-12-23T04:36:59.462Z,60.54
2017-12-23T04:37:31.102Z,60.50
2017-12-23T04:38:02.741Z,60.49
2017-12-23T04:38:34.406Z,60.56
2017-12-23T04:39:06.334Z,60.56
2017-12-23T04:39:37.975Z,60.61
2017-12-23T04:40:09.617Z,60.51
2017-12-23T04:40:41.256Z,60.52
2017-12-23T04:41:12.901Z,60.56
2017-12-23T04:41:44.544Z,60.61
2017-12-23T04:42:16.184Z,60.56
2017-12-23T04:42:47.827Z,60.67
2017-12-23T04:43:19.468Z,60.66
2017-12-23T04:43:51.138Z,60.69
2017-12-23T04:44:22.770Z,60.67
2017-12-23T04:44:54.398Z,60.60
2017-12-23T04:45:26.035Z,60.58
2017-12-23T04:45:57.676Z,60.66
2017-12-23T04:46:29.507Z,60.51
2017-12-23T04:47:01.268Z,60.50
2017-12-23T04:47:32.909Z,60.34
2017-12-23T04:48:04.552Z,60.50
2017-12-23T04:48:36.222Z,60.84
2017-12-23T04:49:07.845Z,60.00
2017-12-23T04:49:39.476Z,59.58
2017-12-23T04:50:11.116Z,59.55
2017-12-23T04:50:42.762Z,59.59
2017-12-23T04:51:14.399Z,59.57
2017-12-23T04:51:46.041Z,59.46
2017-12-23T04:52:17.686Z,59.13
2017-12-23T04:52:49.328Z,59.23
2017-12-23T04:53:21.277Z,59.33
2017-12-23T04:53:52.918Z,59.49
2017-12-23T04:54:24.560Z,59.53
2017-12-23T04:54:56.202Z,59.66
2017-12-23T04:55:27.841Z,59.82
2017-12-23T04:55:59.485Z,60.14
2017-12-23T04:56:31.125Z,59.98
2017-12-23T04:57:02.769Z,60.05
2017-12-23T04:57:34.412Z,60.00
2017-12-23T04:58:06.050Z,59.97
2017-12-23T04:58:37.722Z,60.55
2017-12-23T04:59:09.346Z,60.29
2017-12-23T04:59:40.981Z,60.14
2017-12-23T05:00:12.620Z,60.28
2017-12-23T05:00:44.265Z,60.29
2017-12-23T05:01:15.925Z,60.30
2017-12-23T05:01:47.550Z,60.17
2017-12-23T05:02:19.188Z,60.07
2017-12-23T05:02:50.830Z,60.42
2017-12-23T05:03:22.471Z,60.25
2017-12-23T05:03:54.130Z,60.19
2017-12-23T05:04:26.025Z,60.26
2017-12-23T05:04:57.659Z,60.40
2017-12-23T05:05:29.290Z,60.27
2017-12-23T05:06:00.909Z,60.35
2017-12-23T05:06:32.535Z,60.36
2017-12-23T05:07:04.271Z,60.38
2017-12-23T05:07:35.913Z,60.45
2017-12-23T05:08:07.554Z,60.38
2017-12-23T05:08:39.204Z,60.29
2017-12-23T05:09:10.839Z,60.40
2017-12-23T05:09:42.478Z,60.51
2017-12-23T05:10:14.123Z,60.50
2017-12-23T05:10:45.762Z,60.43
2017-12-23T05:11:17.429Z,60.54
2017-12-23T05:11:49.054Z,60.61
2017-12-23T05:12:20.875Z,60.70
2017-12-23T05:12:52.506Z,60.56
2017-12-23T05:13:24.133Z,60.53
2017-12-23T05:13:55.759Z,60.55
2017-12-23T05:14:27.422Z,60.63
2017-12-23T05:14:59.050Z,60.73
2017-12-23T05:15:30.683Z,60.86
2017-12-23T05:16:02.310Z,61.02
2017-12-23T05:16:33.933Z,60.83
2017-12-23T05:17:05.772Z,60.97
2017-12-23T05:17:37.445Z,61.24
2017-12-23T05:18:09.072Z,61.04
2017-12-23T05:18:40.937Z,61.45
2017-12-23T05:19:12.566Z,61.26
2017-12-23T05:19:44.198Z,61.26
2017-12-23T05:20:15.931Z,61.39
2017-12-23T05:20:47.573Z,61.41
2017-12-23T05:21:19.213Z,61.59
2017-12-23T05:21:50.853Z,61.62
2017-12-23T05:22:22.497Z,61.65
2017-12-23T05:22:54.175Z,61.59
2017-12-23T05:23:25.797Z,61.74
2017-12-23T05:23:57.730Z,61.81
2017-12-23T05:24:29.380Z,61.66
2017-12-23T05:25:01.014Z,61.71
2017-12-23T05:25:32.653Z,61.67
2017-12-23T05:26:04.298Z,61.76
2017-12-23T05:26:35.938Z,61.93
2017-12-23T05:27:07.579Z,61.79
2017-12-23T05:27:39.530Z,61.96
2017-12-23T05:28:11.171Z,62.05
2017-12-23T05:28:42.812Z,62.00
2017-12-23T05:29:14.479Z,61.98
2017-12-23T05:29:46.155Z,62.17
2017-12-23T05:30:17.774Z,61.93
2017-12-23T05:30:49.394Z,61.96
2017-12-23T05:31:21.330Z,62.18
2017-12-23T05:31:52.976Z,62.19
2017-12-23T05:32:24.613Z,62.28
2017-12-23T05:32:56.252Z,61.97
2017-12-23T05:33:27.895Z,62.36
2017-12-23T05:33:59.539Z,62.51
2017-12-23T05:34:31.180Z,62.28
2017-12-23T05:35:02.850Z,62.51
2017-12-23T05:35:34.478Z,62.38
2017-12-23T05:36:06.302Z,62.62
2017-12-23T05:36:38.056Z,62.57
2017-12-23T05:37:09.698Z,62.50
2017-12-23T05:37:41.339Z,62.70
2017-12-23T05:38:12.980Z,62.55
2017-12-23T05:38:44.624Z,62.60
2017-12-23T05:39:16.264Z,62.54
2017-12-23T05:39:47.906Z,62.90
2017-12-23T05:40:19.547Z,62.87
2017-12-23T05:40:51.223Z,62.60
2017-12-23T05:41:22.855Z,62.72
2017-12-23T05:41:54.486Z,62.67
2017-12-23T05:42:26.422Z,62.71
2017-12-23T05:42:58.064Z,62.60
2017-12-23T05:43:29.742Z,62.36
2017-12-23T05:44:01.372Z,62.42
2017-12-23T05:44:32.999Z,62.51
2017-12-23T05:45:04.633Z,62.39
2017-12-23T05:45:36.271Z,62.49
2017-12-23T05:46:07.916Z,62.33
2017-12-23T05:46:39.557Z,62.50
2017-12-23T05:47:11.201Z,62.40
2017-12-23T05:47:42.838Z,62.34
2017-12-23T05:48:14.482Z,62.41
2017-12-23T05:48:46.161Z,62.38
2017-12-23T05:49:17.782Z,62.12
2017-12-23T05:49:49.414Z,62.06
2017-12-23T05:50:21.035Z,61.98
2017-12-23T05:50:52.692Z,62.03
2017-12-23T05:51:24.333Z,62.02
2017-12-23T05:51:55.978Z,61.89
2017-12-23T05:52:27.618Z,61.90
2017-12-23T05:52:59.262Z,61.84
2017-12-23T05:53:30.901Z,61.75
2017-12-23T05:54:02.570Z,61.83
2017-12-23T05:54:34.194Z,61.76
2017-12-23T05:55:05.945Z,61.76
2017-12-23T05:55:37.776Z,61.72
2017-12-23T05:56:09.418Z,61.62
2017-12-23T05:56:41.057Z,61.70
2017-12-23T05:57:12.700Z,61.63
2017-12-23T05:57:44.343Z,61.50
2017-12-23T05:58:15.985Z,61.46
2017-12-23T05:58:47.623Z,61.42
2017-12-23T05:59:19.299Z,61.39
2017-12-23T05:59:50.922Z,61.37
2017-12-23T06:00:22.859Z,61.34
2017-12-23T06:00:54.539Z,61.17
2017-12-23T06:01:26.170Z,61.20
2017-12-23T06:01:57.799Z,61.12
2017-12-23T06:02:29.672Z,61.09
2017-12-23T06:03:01.291Z,60.99
2017-12-23T06:03:33.019Z,60.90
2017-12-23T06:04:04.660Z,60.86
2017-12-23T06:04:36.302Z,60.85
2017-12-23T06:05:07.944Z,60.98
2017-12-23T06:05:39.586Z,61.13
2017-12-23T06:06:11.259Z,60.92
2017-12-23T06:06:42.886Z,61.05
2017-12-23T06:07:14.783Z,60.98
2017-12-23T06:07:46.409Z,60.99
2017-12-23T06:08:18.035Z,60.96
2017-12-23T06:08:49.658Z,61.16
2017-12-23T06:09:21.386Z,61.05
2017-12-23T06:09:53.028Z,61.06
2017-12-23T06:10:24.669Z,60.94
2017-12-23T06:10:56.335Z,60.88
2017-12-23T06:11:27.958Z,60.77
2017-12-23T06:11:59.596Z,60.65
2017-12-23T06:12:31.237Z,60.62
2017-12-23T06:13:02.878Z,60.79
2017-12-23T06:13:34.546Z,60.64
2017-12-23T06:14:06.170Z,60.52
2017-12-23T06:14:38.037Z,60.61
2017-12-23T06:15:09.662Z,60.65
2017-12-23T06:15:41.396Z,60.59
2017-12-23T06:16:13.036Z,60.84
2017-12-23T06:16:44.666Z,60.83
2017-12-23T06:17:16.321Z,60.79
2017-12-23T06:17:47.985Z,60.76
2017-12-23T06:18:19.658Z,60.69
2017-12-23T06:18:51.282Z,60.87
2017-12-23T06:19:22.901Z,60.85
2017-12-23T06:19:54.719Z,60.91
2017-12-23T06:20:26.479Z,60.90
2017-12-23T06:20:58.120Z,60.89
2017-12-23T06:21:29.763Z,60.81
2017-12-23T06:22:01.408Z,60.88
2017-12-23T06:22:33.047Z,60.75
2017-12-23T06:23:04.690Z,60.89
2017-12-23T06:23:36.362Z,60.77
2017-12-23T06:24:07.994Z,60.88
2017-12-23T06:24:39.855Z,60.87
2017-12-23T06:25:11.487Z,60.89
2017-12-23T06:25:43.110Z,60.80
2017-12-23T06:26:14.783Z,60.81
2017-12-23T06:26:46.406Z,60.78
2017-12-23T06:27:18.034Z,60.84
2017-12-23T06:27:49.774Z,60.83
2017-12-23T06:28:21.415Z,60.76
2017-12-23T06:28:53.081Z,60.83
2017-12-23T06:29:24.711Z,60.80
2017-12-23T06:29:56.341Z,60.90
2017-12-23T06:30:27.971Z,60.96
2017-12-23T06:30:59.599Z,60.80
2017-12-23T06:31:31.222Z,60.75
2017-12-23T06:32:02.850Z,60.96
2017-12-23T06:32:34.472Z,60.97
2017-12-23T06:33:06.106Z,60.97
2017-12-23T06:33:37.834Z,60.87
2017-12-23T06:34:09.514Z,60.92
2017-12-23T06:34:41.135Z,61.00
2017-12-23T06:35:12.766Z,60.99
2017-12-23T06:35:44.401Z,60.98
2017-12-23T06:36:16.044Z,60.97
2017-12-23T06:36:47.686Z,60.96
2017-12-23T06:37:19.315Z,61.28
2017-12-23T06:37:50.969Z,61.07
2017-12-23T06:38:22.610Z,61.07
2017-12-23T06:38:54.253Z,61.19
2017-12-23T06:39:25.914Z,61.19
2017-12-23T06:39:57.845Z,61.22
2017-12-23T06:40:29.487Z,61.34
2017-12-23T06:41:01.126Z,61.20
2017-12-23T06:41:32.771Z,61.30
2017-12-23T06:42:04.452Z,61.27
2017-12-23T06:42:36.078Z,61.26
2017-12-23T06:43:07.703Z,61.26
2017-12-23T06:43:39.338Z,61.41
2017-12-23T06:44:10.979Z,61.38
2017-12-23T06:44:42.619Z,61.55
2017-12-23T06:45:14.262Z,61.48
2017-12-23T06:45:45.931Z,61.51
2017-12-23T06:46:17.590Z,61.43
2017-12-23T06:46:49.210Z,61.74
2017-12-23T06:47:20.830Z,61.64
2017-12-23T06:47:52.508Z,61.70